createdAt,value
2019-02-17T00:00:51.295Z,-1.70
2019-02-17T00:03:21.382Z,-1.80
2019-02-17T00:05:51.505Z,-1.80
2019-02-17T00:08:23.110Z,-1.80
2019-02-17T00:10:54.371Z,-1.80
2019-02-17T00:13:25.928Z,-1.80
2019-02-17T00:15:56.027Z,-1.80
2019-02-17T00:18:27.329Z,-1.80
2019-02-17T00:20:57.427Z,-1.90
2019-02-17T00:23:31.112Z,-1.90
2019-02-17T00:26:04.135Z,-1.90
2019-02-17T00:28:34.013Z,-1.90
2019-02-17T00:31:10.135Z,-2.00
2019-02-17T00:33:43.374Z,-2.00
2019-02-17T00:36:13.398Z,-2.10
2019-02-17T00:38:43.424Z,-2.20
2019-02-17T00:41:14.755Z,-2.10
2019-02-17T00:43:44.930Z,-2.10
2019-02-17T00:46:15.971Z,-2.00
2019-02-17T00:48:46.132Z,-1.90
2019-02-17T00:51:19.239Z,-1.90
2019-02-17T00:53:49.334Z,-1.80
2019-02-17T00:56:24.288Z,-1.90
2019-02-17T00:58:54.147Z,-2.00
2019-02-17T01:01:24.252Z,-2.00
2019-02-17T01:03:57.327Z,-2.10
2019-02-17T01:06:28.455Z,-2.20
2019-02-17T01:08:58.434Z,-2.10
2019-02-17T01:11:28.557Z,-2.20
2019-02-17T01:14:03.137Z,-2.30
2019-02-17T01:16:33.305Z,-2.40
2019-02-17T01:19:04.202Z,-2.40
2019-02-17T01:21:34.301Z,-2.40
2019-02-17T01:24:04.437Z,-2.40
2019-02-17T01:26:35.351Z,-2.40
2019-02-17T01:29:07.900Z,-2.40
2019-02-17T01:31:39.430Z,-2.40
2019-02-17T01:34:12.513Z,-2.40
2019-02-17T01:36:42.640Z,-2.50
2019-02-17T01:39:13.856Z,-2.50
2019-02-17T01:41:43.983Z,-2.40
2019-02-17T01:44:21.265Z,-2.30
2019-02-17T01:46:52.602Z,-2.30
2019-02-17T01:49:23.516Z,-2.20
2019-02-17T01:51:54.966Z,-2.20
2019-02-17T01:54:25.042Z,-2.20
2019-02-17T01:56:58.166Z,-2.30
2019-02-17T01:59:30.674Z,-2.30
2019-02-17T02:02:01.136Z,-2.30
2019-02-17T02:04:31.206Z,-2.40
2019-02-17T02:07:02.518Z,-2.50
2019-02-17T02:09:36.904Z,-2.50
2019-02-17T02:12:08.592Z,-2.50
2019-02-17T02:14:38.682Z,-2.50
2019-02-17T02:17:10.084Z,-2.60
2019-02-17T02:19:40.141Z,-2.50
2019-02-17T02:22:10.161Z,-2.50
2019-02-17T02:24:41.515Z,-2.50
2019-02-17T02:27:12.991Z,-2.60
2019-02-17T02:29:43.084Z,-2.70
2019-02-17T02:32:15.913Z,-2.60
2019-02-17T02:34:46.032Z,-2.60
2019-02-17T02:37:16.229Z,-2.70
2019-02-17T02:39:46.271Z,-2.70
2019-02-17T02:42:16.272Z,-2.70
2019-02-17T02:44:48.626Z,-2.70
2019-02-17T02:47:24.561Z,-2.70
2019-02-17T02:49:58.553Z,-2.80
2019-02-17T02:52:27.808Z,-2.80
2019-02-17T02:54:57.865Z,-2.90
2019-02-17T02:57:27.862Z,-2.90
2019-02-17T02:59:57.944Z,-2.90
2019-02-17T03:02:28.029Z,-2.90
2019-02-17T03:04:58.023Z,-2.90
2019-02-17T03:07:30.030Z,-2.80
2019-02-17T03:09:59.855Z,-2.70
2019-02-17T03:12:29.857Z,-2.70
2019-02-17T03:14:59.865Z,-2.70
2019-02-17T03:17:33.122Z,-2.60
2019-02-17T03:20:08.288Z,-2.60
2019-02-17T03:22:39.366Z,-2.70
2019-02-17T03:25:11.346Z,-2.80
2019-02-17T03:27:41.412Z,-3.00
2019-02-17T03:30:13.925Z,-3.00
2019-02-17T03:32:43.283Z,-3.00
2019-02-17T03:35:13.352Z,-3.10
2019-02-17T03:37:43.446Z,-3.10
2019-02-17T03:40:17.959Z,-3.00
2019-02-17T03:42:49.773Z,-3.10
2019-02-17T03:45:19.895Z,-3.10
2019-02-17T03:47:49.972Z,-3.00
2019-02-17T03:50:19.980Z,-3.10
2019-02-17T03:52:50.033Z,-3.10
2019-02-17T03:55:19.897Z,-3.30
2019-02-17T03:57:51.352Z,-3.30
2019-02-17T04:00:21.330Z,-3.20
2019-02-17T04:02:51.324Z,-3.20
2019-02-17T04:05:21.329Z,-3.20
2019-02-17T04:07:51.306Z,-3.10
2019-02-17T04:10:22.333Z,-3.20
2019-02-17T04:12:53.549Z,-3.20
2019-02-17T04:15:25.535Z,-3.20
2019-02-17T04:17:56.855Z,-3.30
2019-02-17T04:20:26.939Z,-3.40
2019-02-17T04:22:59.814Z,-3.50
2019-02-17T04:25:31.309Z,-3.60
2019-02-17T04:28:02.747Z,-3.60
2019-02-17T04:30:32.760Z,-3.60
2019-02-17T04:33:02.838Z,-3.60
2019-02-17T04:35:38.961Z,-3.60
2019-02-17T04:38:09.978Z,-3.60
2019-02-17T04:40:39.970Z,-3.60
2019-02-17T04:43:14.027Z,-3.60
2019-02-17T04:45:44.017Z,-3.60
2019-02-17T04:48:14.015Z,-3.60
2019-02-17T04:50:44.011Z,-3.60
2019-02-17T04:53:14.015Z,-3.50
2019-02-17T04:55:46.665Z,-3.40
2019-02-17T04:58:19.711Z,-3.40
2019-02-17T05:00:52.728Z,-3.40
2019-02-17T05:03:22.719Z,-3.50
2019-02-17T05:05:55.783Z,-3.40
2019-02-17T05:08:25.830Z,-3.40
2019-02-17T05:11:00.028Z,-3.40
2019-02-17T05:13:31.305Z,-3.50
2019-02-17T05:16:01.373Z,-3.50
2019-02-17T05:18:31.459Z,-3.60
2019-02-17T05:21:01.498Z,-3.50
2019-02-17T05:23:31.601Z,-3.40
2019-02-17T05:26:02.763Z,-3.50
2019-02-17T05:28:33.855Z,-3.60
2019-02-17T05:31:05.440Z,-3.60
2019-02-17T05:33:35.447Z,-3.80
2019-02-17T05:36:06.485Z,-3.80
2019-02-17T05:38:37.157Z,-3.80
2019-02-17T05:41:07.152Z,-3.80
2019-02-17T05:43:37.772Z,-3.70
2019-02-17T05:46:09.183Z,-3.60
2019-02-17T05:48:39.215Z,-3.50
2019-02-17T05:51:13.527Z,-3.50
2019-02-17T05:53:43.493Z,-3.60
2019-02-17T05:56:15.156Z,-3.60
2019-02-17T05:58:48.667Z,-3.70
2019-02-17T06:01:18.489Z,-3.70
2019-02-17T06:03:51.745Z,-3.70
2019-02-17T06:06:21.855Z,-3.80
2019-02-17T06:08:52.199Z,-3.90
2019-02-17T06:11:23.860Z,-4.00
2019-02-17T06:13:53.942Z,-3.90
2019-02-17T06:16:25.169Z,-4.00
2019-02-17T06:18:55.973Z,-3.90
2019-02-17T06:21:25.954Z,-3.80
2019-02-17T06:23:59.245Z,-3.80
2019-02-17T06:26:30.637Z,-3.80
2019-02-17T06:29:01.825Z,-3.70
2019-02-17T06:31:31.811Z,-3.60
2019-02-17T06:34:03.570Z,-3.50
2019-02-17T06:36:35.121Z,-3.50
2019-02-17T06:39:09.154Z,-3.50
2019-02-17T06:41:40.706Z,-3.50
2019-02-17T06:44:10.807Z,-3.40
2019-02-17T06:46:45.569Z,-3.20
2019-02-17T06:49:17.281Z,-3.00
2019-02-17T06:51:47.335Z,-2.90
2019-02-17T06:54:17.415Z,-2.00
2019-02-17T06:56:56.563Z,0.30
2019-02-17T06:59:28.007Z,2.00
2019-02-17T07:01:59.299Z,2.90
2019-02-17T07:04:42.777Z,4.80
2019-02-17T07:07:16.470Z,7.50
2019-02-17T07:09:46.513Z,10.00
2019-02-17T07:12:18.368Z,11.30
2019-02-17T07:14:48.507Z,12.00
2019-02-17T07:17:22.786Z,13.70
2019-02-17T07:19:53.868Z,15.30
2019-02-17T07:22:25.611Z,16.00
2019-02-17T07:24:58.444Z,16.50
2019-02-17T07:27:28.483Z,16.80
2019-02-17T07:29:58.609Z,17.00
2019-02-17T07:32:30.321Z,17.10
2019-02-17T07:35:01.186Z,17.70
2019-02-17T07:37:33.878Z,18.50
2019-02-17T07:40:03.049Z,19.60
2019-02-17T07:42:33.233Z,19.30
2019-02-17T07:45:03.331Z,18.90
2019-02-17T07:47:35.173Z,18.50
2019-02-17T07:50:06.783Z,18.60
2019-02-17T07:52:42.463Z,18.10
2019-02-17T07:55:14.361Z,18.10
2019-02-17T07:57:44.625Z,18.30
2019-02-17T08:00:18.942Z,18.60
2019-02-17T08:02:49.669Z,18.80
2019-02-17T08:05:21.019Z,19.00
2019-02-17T08:07:54.991Z,19.20
2019-02-17T08:10:30.112Z,19.80
2019-02-17T08:13:01.748Z,20.80
2019-02-17T08:15:31.912Z,21.40
2019-02-17T08:18:01.909Z,21.80
2019-02-17T08:20:36.606Z,21.60
2019-02-17T08:23:08.733Z,22.50
2019-02-17T08:25:40.214Z,24.20
2019-02-17T08:28:10.331Z,24.70
2019-02-17T08:30:41.472Z,25.60
2019-02-17T08:33:11.560Z,26.80
2019-02-17T08:35:41.690Z,27.00
2019-02-17T08:38:12.026Z,28.10
2019-02-17T08:40:43.150Z,29.00
2019-02-17T08:43:13.311Z,29.50
2019-02-17T08:45:45.332Z,29.40
2019-02-17T08:48:15.204Z,28.70
2019-02-17T08:50:49.788Z,28.50
2019-02-17T08:53:19.808Z,27.70
2019-02-17T08:55:49.831Z,27.30
2019-02-17T08:58:19.934Z,27.60
2019-02-17T09:00:49.941Z,27.80
2019-02-17T09:03:20.114Z,27.80
2019-02-17T09:05:50.174Z,28.00
2019-02-17T09:08:20.264Z,28.00
2019-02-17T09:10:50.352Z,28.50
2019-02-17T09:13:20.492Z,29.80
2019-02-17T09:15:50.477Z,30.90
2019-02-17T09:18:20.501Z,31.50
2019-02-17T09:20:50.543Z,31.50
2019-02-17T09:23:20.557Z,31.50
2019-02-17T09:25:50.541Z,32.20
2019-02-17T09:28:20.595Z,32.20
2019-02-17T09:30:50.663Z,32.50
2019-02-17T09:33:20.799Z,32.60
2019-02-17T09:35:50.816Z,33.30
2019-02-17T09:38:20.888Z,33.40
2019-02-17T09:40:50.917Z,33.80
2019-02-17T09:43:21.008Z,34.00
2019-02-17T09:45:51.099Z,33.80
2019-02-17T09:48:21.259Z,33.70
2019-02-17T09:50:51.261Z,33.80
2019-02-17T09:53:21.315Z,34.10
2019-02-17T09:55:51.415Z,34.40
2019-02-17T09:58:21.481Z,34.40
2019-02-17T10:00:51.569Z,34.80
2019-02-17T10:03:21.682Z,34.10
2019-02-17T10:05:51.851Z,34.00
2019-02-17T10:08:21.872Z,33.30
2019-02-17T10:10:51.991Z,33.40
2019-02-17T10:13:22.084Z,33.40
2019-02-17T10:15:52.103Z,33.80
2019-02-17T10:18:22.116Z,33.90
2019-02-17T10:20:52.240Z,34.30
2019-02-17T10:23:22.258Z,34.00
2019-02-17T10:25:52.416Z,34.10
2019-02-17T10:28:22.518Z,34.20
2019-02-17T10:30:52.537Z,33.70
2019-02-17T10:33:22.722Z,33.80
2019-02-17T10:35:52.721Z,34.00
2019-02-17T10:38:22.835Z,34.00
2019-02-17T10:40:52.925Z,33.90
2019-02-17T10:43:23.113Z,33.70
2019-02-17T10:45:53.243Z,33.50
2019-02-17T10:48:23.376Z,32.60
2019-02-17T10:50:53.454Z,31.90
2019-02-17T10:53:23.568Z,31.10
2019-02-17T10:55:53.664Z,31.40
2019-02-17T10:58:23.722Z,32.30
2019-02-17T11:00:55.316Z,31.80
2019-02-17T11:03:25.425Z,31.70
2019-02-17T11:05:55.526Z,31.40
2019-02-17T11:08:25.627Z,31.50
2019-02-17T11:10:55.615Z,31.70
2019-02-17T11:13:25.714Z,31.80
2019-02-17T11:15:55.747Z,31.30
2019-02-17T11:18:26.204Z,31.00
2019-02-17T11:20:57.368Z,30.80
2019-02-17T11:23:27.408Z,29.80
2019-02-17T11:25:57.591Z,25.80
2019-02-17T11:28:27.741Z,23.00
2019-02-17T11:30:58.543Z,20.30
2019-02-17T11:33:28.659Z,18.20
2019-02-17T11:35:58.689Z,16.90
2019-02-17T11:38:28.809Z,15.90
2019-02-17T11:40:59.031Z,15.20
2019-02-17T11:43:29.149Z,14.40
2019-02-17T11:45:59.144Z,13.60
2019-02-17T11:48:29.218Z,13.20
2019-02-17T11:50:59.297Z,12.70
2019-02-17T11:53:29.297Z,12.50
2019-02-17T11:55:59.314Z,12.40
2019-02-17T11:58:29.439Z,12.40
2019-02-17T12:00:59.626Z,12.50
2019-02-17T12:03:29.723Z,12.40
2019-02-17T12:05:59.814Z,12.30
2019-02-17T12:08:29.881Z,12.30
2019-02-17T12:10:59.921Z,12.40
2019-02-17T12:13:29.943Z,12.30
2019-02-17T12:16:00.193Z,12.20
2019-02-17T12:18:30.205Z,12.10
2019-02-17T12:21:25.471Z,11.90
2019-02-17T12:24:14.592Z,11.70
2019-02-17T12:27:12.752Z,11.60
2019-02-17T12:29:45.644Z,11.50
2019-02-17T12:32:15.732Z,11.50
2019-02-17T12:34:47.030Z,11.50
2019-02-17T12:37:17.117Z,11.50
2019-02-17T12:39:47.155Z,11.40
2019-02-17T12:42:20.258Z,11.30
2019-02-17T12:44:51.460Z,11.30
2019-02-17T12:47:24.146Z,11.30
2019-02-17T12:49:56.593Z,11.30
2019-02-17T12:52:26.802Z,11.20
2019-02-17T12:54:56.922Z,11.20
2019-02-17T12:57:29.717Z,11.20
2019-02-17T13:00:00.873Z,11.10
2019-02-17T13:02:32.856Z,11.10
2019-02-17T13:05:04.118Z,11.10
2019-02-17T13:07:34.211Z,11.00
2019-02-17T13:10:04.420Z,11.10
2019-02-17T13:12:36.075Z,11.00
2019-02-17T13:15:07.130Z,11.00
2019-02-17T13:17:37.150Z,11.00
2019-02-17T13:20:10.905Z,11.00
2019-02-17T13:22:42.246Z,11.00
2019-02-17T13:25:18.994Z,11.00
2019-02-17T13:27:50.804Z,11.00
2019-02-17T13:30:22.996Z,11.10
2019-02-17T13:32:55.690Z,11.10
2019-02-17T13:35:25.867Z,11.10
2019-02-17T13:38:00.119Z,11.00
2019-02-17T13:40:29.509Z,11.10
2019-02-17T13:43:01.062Z,11.10
2019-02-17T13:45:31.095Z,11.20
2019-02-17T13:48:04.151Z,11.10
2019-02-17T13:50:34.129Z,11.20
2019-02-17T13:53:11.685Z,11.20
2019-02-17T13:55:39.252Z,11.30
2019-02-17T13:58:09.297Z,11.20
2019-02-17T14:00:39.446Z,11.10
2019-02-17T14:03:09.548Z,11.10
2019-02-17T14:05:40.965Z,11.20
2019-02-17T14:08:12.761Z,11.20
2019-02-17T14:10:42.976Z,11.30
2019-02-17T14:13:14.796Z,11.30
2019-02-17T14:15:44.997Z,11.30
2019-02-17T14:18:15.099Z,11.30
2019-02-17T14:20:45.323Z,11.30
2019-02-17T14:23:15.335Z,11.30
2019-02-17T14:25:45.444Z,11.20
2019-02-17T14:28:15.563Z,11.20
2019-02-17T14:30:45.663Z,11.20
2019-02-17T14:33:15.803Z,11.20
2019-02-17T14:35:45.899Z,11.20
2019-02-17T14:38:16.498Z,11.20
2019-02-17T14:40:46.698Z,11.20
2019-02-17T14:46:06.101Z,11.00
2019-02-17T14:48:36.241Z,10.90
2019-02-17T14:51:06.456Z,11.00
2019-02-17T14:53:36.721Z,11.00
2019-02-17T14:56:06.941Z,11.00
2019-02-17T14:58:37.207Z,10.90
2019-02-17T15:01:07.359Z,11.00
2019-02-17T15:03:37.602Z,10.90
2019-02-17T15:06:07.819Z,11.00
2019-02-17T15:08:38.053Z,10.90
2019-02-17T15:11:08.277Z,10.90
2019-02-17T15:13:41.302Z,10.80
2019-02-17T15:16:11.586Z,10.80
2019-02-17T15:18:42.181Z,10.70
2019-02-17T15:21:15.153Z,10.70
2019-02-17T15:23:45.379Z,10.60
2019-02-17T15:26:15.774Z,10.60
2019-02-17T15:28:50.950Z,10.50
2019-02-17T15:31:18.107Z,10.50
2019-02-17T15:33:50.299Z,10.50
2019-02-17T15:36:20.460Z,10.50
2019-02-17T15:38:50.669Z,10.40
2019-02-17T15:41:20.823Z,10.30
2019-02-17T15:43:52.157Z,10.30
2019-02-17T15:46:22.326Z,10.20
2019-02-17T15:48:54.365Z,10.20
2019-02-17T15:51:25.673Z,10.10
2019-02-17T15:53:57.089Z,10.10
2019-02-17T15:56:28.193Z,9.90
2019-02-17T15:58:58.959Z,9.70
2019-02-17T16:01:30.129Z,9.50
2019-02-17T16:04:01.428Z,9.20
2019-02-17T16:06:36.033Z,8.90
2019-02-17T16:09:07.998Z,8.60
2019-02-17T16:11:38.535Z,8.30
2019-02-17T16:14:08.770Z,7.90
2019-02-17T16:16:39.901Z,7.70
2019-02-17T16:19:10.221Z,7.40
2019-02-17T16:21:40.465Z,7.20
2019-02-17T16:24:10.697Z,7.00
2019-02-17T16:26:40.923Z,6.70
2019-02-17T16:29:11.378Z,6.70
2019-02-17T16:31:41.757Z,6.30
2019-02-17T16:34:12.439Z,6.10
2019-02-17T16:36:42.756Z,5.90
2019-02-17T16:39:15.879Z,5.70
2019-02-17T16:41:49.051Z,5.70
2019-02-17T16:44:24.730Z,5.50
2019-02-17T16:46:55.076Z,5.40
2019-02-17T16:49:25.649Z,5.30
2019-02-17T16:51:55.877Z,5.20
2019-02-17T16:54:26.163Z,5.00
2019-02-17T16:56:56.417Z,4.90
2019-02-17T16:59:26.709Z,4.80
2019-02-17T17:01:56.983Z,4.70
2019-02-17T17:04:28.757Z,4.60
2019-02-17T17:07:01.002Z,4.50
2019-02-17T17:09:34.941Z,4.40
2019-02-17T17:12:09.850Z,4.20
2019-02-17T17:14:41.401Z,4.20
2019-02-17T17:17:12.522Z,4.10
2019-02-17T17:19:45.008Z,4.00
2019-02-17T17:22:17.150Z,3.90
2019-02-17T17:24:50.012Z,3.80
2019-02-17T17:27:20.255Z,3.70
2019-02-17T17:29:54.538Z,3.60
2019-02-17T17:32:28.410Z,3.60
2019-02-17T17:34:59.928Z,3.50
2019-02-17T17:37:31.252Z,3.50
2019-02-17T17:40:04.417Z,3.40
2019-02-17T17:42:37.838Z,3.30
2019-02-17T17:45:13.463Z,3.20
2019-02-17T17:47:44.651Z,3.20
2019-02-17T17:50:16.348Z,3.20
2019-02-17T17:52:47.627Z,3.10
2019-02-17T17:55:23.326Z,3.00
2019-02-17T17:57:59.747Z,2.90
2019-02-17T18:00:35.566Z,2.90
2019-02-17T18:03:09.491Z,2.80
2019-02-17T18:05:41.922Z,2.60
2019-02-17T18:08:12.807Z,2.80
2019-02-17T18:10:45.264Z,2.90
2019-02-17T18:13:16.843Z,2.90
2019-02-17T18:15:49.173Z,2.80
2019-02-17T18:18:21.441Z,2.70
2019-02-17T18:20:53.756Z,2.60
2019-02-17T18:23:26.903Z,2.60
2019-02-17T18:25:59.812Z,2.50
2019-02-17T18:28:32.988Z,2.40
2019-02-17T18:31:07.751Z,2.30
2019-02-17T18:33:38.326Z,2.30
2019-02-17T18:36:10.984Z,2.20
2019-02-17T18:38:45.696Z,2.10
2019-02-17T18:41:16.310Z,2.00
2019-02-17T18:43:48.057Z,2.00
2019-02-17T18:46:21.344Z,1.90
2019-02-17T18:48:52.061Z,1.80
2019-02-17T18:51:23.175Z,1.80
2019-02-17T18:53:57.345Z,1.80
2019-02-17T18:56:31.245Z,1.80
2019-02-17T18:59:04.786Z,1.70
2019-02-17T19:01:36.561Z,1.60
2019-02-17T19:04:07.763Z,1.60
2019-02-17T19:06:41.748Z,1.40
2019-02-17T19:09:14.609Z,1.40
2019-02-17T19:11:45.277Z,1.40
2019-02-17T19:14:15.987Z,1.50
2019-02-17T19:16:47.322Z,1.60
2019-02-17T19:19:17.867Z,1.60
2019-02-17T19:21:48.728Z,1.50
2019-02-17T19:24:20.592Z,1.40
2019-02-17T19:26:52.535Z,1.50
2019-02-17T19:29:23.440Z,1.40
2019-02-17T19:31:54.362Z,1.30
2019-02-17T19:34:25.083Z,1.20
2019-02-17T19:36:56.820Z,1.20
2019-02-17T19:39:28.156Z,1.10
2019-02-17T19:41:58.786Z,1.00
2019-02-17T19:44:35.288Z,1.10
2019-02-17T19:47:05.815Z,1.00
2019-02-17T19:49:39.523Z,1.30
2019-02-17T19:52:09.864Z,1.30
2019-02-17T19:54:42.587Z,1.30
2019-02-17T19:57:13.360Z,1.30
2019-02-17T19:59:47.749Z,1.20
2019-02-17T20:02:22.403Z,1.10
2019-02-17T20:05:14.508Z,1.10
2019-02-17T20:07:45.066Z,1.20
2019-02-17T20:10:15.751Z,1.20
2019-02-17T20:12:46.133Z,1.20
2019-02-17T20:15:16.874Z,1.10
2019-02-17T20:17:48.415Z,0.90
2019-02-17T20:20:18.833Z,0.90
2019-02-17T20:22:52.160Z,0.90
2019-02-17T20:25:23.705Z,0.80
2019-02-17T20:27:54.110Z,0.80
2019-02-17T20:30:25.457Z,0.80
2019-02-17T20:32:55.891Z,0.70
2019-02-17T20:35:26.417Z,0.60
2019-02-17T20:37:57.110Z,0.50
2019-02-17T20:40:29.119Z,0.40
2019-02-17T20:42:59.567Z,0.30
2019-02-17T20:45:32.700Z,0.50
2019-02-17T20:48:03.005Z,0.60
2019-02-17T20:50:34.709Z,0.60
2019-02-17T20:53:05.000Z,0.60
2019-02-17T20:55:35.402Z,0.50
2019-02-17T20:58:05.720Z,0.50
2019-02-17T21:00:37.938Z,0.50
2019-02-17T21:03:09.923Z,0.40
2019-02-17T21:05:41.105Z,0.40
2019-02-17T21:08:13.217Z,0.30
2019-02-17T21:10:43.950Z,0.10
2019-02-17T21:13:16.657Z,0.20
2019-02-17T21:15:46.958Z,0.30
2019-02-17T21:18:18.365Z,0.30
2019-02-17T21:20:48.532Z,0.20
2019-02-17T21:23:19.548Z,0.10
2019-02-17T21:25:49.797Z,0.10
2019-02-17T21:28:20.399Z,0.10
2019-02-17T21:30:50.911Z,0.00
2019-02-17T21:33:21.465Z,-0.10
2019-02-17T21:35:52.300Z,-0.20
2019-02-17T21:38:22.514Z,-0.20
2019-02-17T21:40:52.764Z,-0.10
2019-02-17T21:43:25.655Z,-0.10
2019-02-17T21:45:57.061Z,-0.10
2019-02-17T21:48:28.383Z,-0.10
2019-02-17T21:51:03.292Z,-0.10
2019-02-17T21:53:35.401Z,-0.20
2019-02-17T21:56:05.295Z,-0.20
2019-02-17T21:58:35.482Z,-0.20
2019-02-17T22:01:13.464Z,-0.20
2019-02-17T22:03:43.585Z,-0.20
2019-02-17T22:06:13.724Z,-0.30
2019-02-17T22:08:46.898Z,-0.30
2019-02-17T22:11:17.260Z,-0.30
2019-02-17T22:13:49.763Z,-0.40
2019-02-17T22:16:20.987Z,-0.40
2019-02-17T22:18:52.365Z,-0.50
2019-02-17T22:21:22.578Z,-0.40
2019-02-17T22:23:52.728Z,-0.40
2019-02-17T22:26:22.828Z,-0.40
2019-02-17T22:28:54.634Z,-0.40
2019-02-17T22:31:25.749Z,-0.40
2019-02-17T22:33:55.742Z,-0.60
2019-02-17T22:36:25.826Z,-0.70
2019-02-17T22:38:56.004Z,-0.70
2019-02-17T22:41:26.081Z,-0.80
2019-02-17T22:43:57.648Z,-0.90
2019-02-17T22:46:28.387Z,-1.00
2019-02-17T22:48:58.639Z,-0.90
2019-02-17T22:51:30.419Z,-1.00
2019-02-17T22:54:04.276Z,-1.10
2019-02-17T22:56:38.635Z,-1.10
2019-02-17T22:59:08.725Z,-1.20
2019-02-17T23:01:44.648Z,-1.20
2019-02-17T23:04:17.982Z,-1.20
2019-02-17T23:06:54.399Z,-1.10
2019-02-17T23:09:27.085Z,-1.20
2019-02-17T23:11:57.195Z,-1.20
2019-02-17T23:14:27.283Z,-1.20
2019-02-17T23:17:00.207Z,-1.10
2019-02-17T23:19:30.281Z,-1.10
2019-02-17T23:22:00.357Z,-1.00
2019-02-17T23:24:31.300Z,-1.10
2019-02-17T23:27:04.151Z,-1.20
2019-02-17T23:29:34.442Z,-1.30
2019-02-17T23:32:05.313Z,-1.40
2019-02-17T23:34:35.397Z,-1.50
2019-02-17T23:37:05.488Z,-1.50
2019-02-17T23:39:40.036Z,-1.50
2019-02-17T23:42:10.147Z,-1.50
2019-02-17T23:44:41.412Z,-1.50
2019-02-17T23:47:13.202Z,-1.60
2019-02-17T23:49:45.012Z,-1.60
2019-02-17T23:52:16.573Z,-1.70
2019-02-17T23:54:46.644Z,-1.70
2019-02-17T23:57:18.310Z,-1.80
2019-02-17T23:59:48.391Z,-1.80
